Time;durP1;ratioP1;P1;durP2;ratioP2;P2;SDS_P1;SDS_P2;PMS_P1;PMS_P2;Temp;Humidity;BMP_temperature;BMP_pressure;BME280_temperature;BME280_humidity;BME280_pressure;Samples;Min_cycle;Max_cycle;Signal;HPM_P1;HPM_P2
2021/11/10 00:00:36;;;;;;;10.13;6.20;;;4.40;80.60;;;4.78;62.47;98400.69;4966570;28;20058;-47
2021/11/10 00:03:04;;;;;;;12.63;7.23;;;4.40;80.90;;;4.79;62.59;98403.25;4967091;28;20349;-47
2021/11/10 00:05:33;;;;;;;11.57;6.83;;;4.50;80.90;;;4.81;61.88;98406.63;4984503;28;20055;-48
2021/11/10 00:08:02;;;;;;;10.23;6.80;;;4.50;80.80;;;4.79;62.07;98410.28;4967190;28;20047;-49
2021/11/10 00:10:30;;;;;;;10.80;6.53;;;4.40;80.70;;;4.76;62.18;98407.88;4967391;28;20046;-49
2021/11/10 00:15:47;;;;;;;10.33;6.43;;;4.20;81.50;;;4.67;62.48;98401.44;4966191;28;20054;-49
2021/11/10 00:18:16;;;;;;;17.37;7.07;;;4.20;82.00;;;4.67;62.20;98388.25;4967711;28;20062;-47
2021/11/10 00:20:45;;;;;;;10.20;6.33;;;4.20;82.40;;;4.66;62.49;98392.69;4966186;28;20066;-48
2021/11/10 00:23:15;;;;;;;12.83;6.63;;;4.20;82.60;;;4.68;62.86;98387.31;4966868;28;20123;-49
2021/11/10 00:25:43;;;;;;;12.07;6.20;;;4.30;82.90;;;4.67;62.24;98386.47;4966775;28;20266;-48
2021/11/10 00:28:10;;;;;;;8.50;6.57;;;4.20;82.70;;;4.65;62.40;98391.00;4965389;28;20273;-50
2021/11/10 00:30:38;;;;;;;9.37;6.77;;;4.20;82.80;;;4.63;62.72;98398.16;4967256;28;20047;-50
2021/11/10 00:33:06;;;;;;;11.57;6.90;;;4.20;83.10;;;4.65;62.84;98393.66;4967366;28;20584;-49
2021/11/10 00:35:34;;;;;;;10.90;6.77;;;4.30;83.00;;;4.67;63.32;98401.44;4966946;28;20072;-49
2021/11/10 00:38:02;;;;;;;11.60;7.10;;;4.30;82.70;;;4.67;62.87;98418.13;4980742;28;20050;-48
2021/11/10 00:40:30;;;;;;;10.37;6.43;;;4.30;82.90;;;4.67;62.60;98419.91;4966333;28;20050;-50
2021/11/10 00:42:58;;;;;;;11.33;6.93;;;4.30;82.90;;;4.63;63.24;98415.78;4965568;28;20050;-48
2021/11/10 00:45:26;;;;;;;12.20;6.80;;;4.20;83.20;;;4.60;62.85;98408.09;4966138;28;20051;-48
2021/11/10 00:47:54;;;;;;;10.60;6.67;;;4.10;83.50;;;4.58;62.84;98420.53;4965825;28;20438;-48
2021/11/10 00:50:22;;;;;;;10.87;6.40;;;4.10;83.60;;;4.52;63.49;98413.88;4965310;28;20050;-48
2021/11/10 00:52:50;;;;;;;9.70;6.90;;;4.00;83.70;;;4.49;63.41;98409.66;4966528;28;20057;-48
2021/11/10 00:55:18;;;;;;;9.33;6.67;;;4.00;84.40;;;4.48;63.30;98417.69;4965250;28;20353;-49
2021/11/10 00:57:46;;;;;;;14.97;7.73;;;4.00;84.70;;;4.49;63.36;98422.00;4965505;28;20265;-49
2021/11/10 01:00:15;;;;;;;12.80;7.43;;;4.00;84.60;;;4.48;63.48;98417.69;4981420;28;20057;-47
2021/11/10 01:02:43;;;;;;;10.50;7.20;;;4.10;84.90;;;4.50;63.14;98399.97;4980432;28;20055;-47
2021/11/10 01:05:11;;;;;;;11.43;8.03;;;4.10;84.50;;;4.50;63.65;98389.44;4966333;28;20065;-49
2021/11/10 01:07:40;;;;;;;14.93;8.03;;;4.10;83.60;;;4.49;62.57;98383.28;4967150;28;20050;-48
2021/11/10 01:10:11;;;;;;;12.10;6.50;;;4.10;83.70;;;4.51;63.28;98383.19;4965108;28;20054;-47
2021/11/10 01:12:41;;;;;;;12.50;7.57;;;4.10;83.70;;;4.51;62.83;98389.28;4965872;28;20059;-48
2021/11/10 01:15:11;;;;;;;11.60;7.87;;;4.10;83.50;;;4.53;63.33;98387.38;4983009;28;20058;-48
2021/11/10 01:17:39;;;;;;;13.93;8.10;;;4.20;83.50;;;4.58;63.60;98402.91;4969084;28;20090;-48
2021/11/10 01:20:11;;;;;;;13.03;7.93;;;4.30;83.30;;;4.61;63.96;98394.78;4982191;28;20058;-47
2021/11/10 01:22:39;;;;;;;13.03;7.73;;;4.40;83.30;;;4.65;62.95;98403.31;4964474;28;20089;-47
2021/11/10 01:25:11;;;;;;;13.40;9.10;;;4.40;83.00;;;4.67;63.84;98402.28;4950066;28;20065;-51
2021/11/10 01:27:40;;;;;;;12.60;7.37;;;4.40;82.70;;;4.67;62.82;98386.47;4965459;28;20054;-47
2021/11/10 01:30:11;;;;;;;12.53;8.00;;;4.40;83.10;;;4.67;63.14;98391.75;4949058;28;20055;-47
2021/11/10 01:32:43;;;;;;;13.73;8.10;;;4.30;83.00;;;4.63;63.48;98392.88;4965089;28;20361;-47
2021/11/10 01:35:11;;;;;;;17.27;8.50;;;4.30;83.40;;;4.60;63.31;98401.03;4949975;28;20257;-48
2021/11/10 01:37:39;;;;;;;11.70;7.50;;;4.20;83.50;;;4.58;63.50;98391.53;4950942;28;20333;-47
2021/11/10 01:40:10;;;;;;;14.87;7.57;;;4.20;83.60;;;4.56;63.87;98394.28;4948813;28;20373;-48
2021/11/10 01:42:42;;;;;;;13.23;8.07;;;4.10;83.90;;;4.54;63.30;98390.91;4950217;29;20722;-48
2021/11/10 01:45:15;;;;;;;11.13;7.87;;;4.10;83.90;;;4.53;63.60;98376.84;4948108;28;20373;-48
2021/11/10 01:47:46;;;;;;;13.93;7.70;;;4.10;83.70;;;4.49;62.98;98377.16;4965496;28;20369;-47
2021/11/10 01:50:18;;;;;;;11.63;7.90;;;4.10;83.90;;;4.42;63.55;98378.53;4962505;28;20053;-49
2021/11/10 01:52:47;;;;;;;13.73;8.93;;;4.00;84.20;;;4.41;63.29;98379.50;4964554;28;20807;-48
2021/11/10 01:55:16;;;;;;;11.80;7.93;;;4.00;84.30;;;4.36;63.13;98371.88;4963590;28;20450;-52
2021/11/10 01:57:48;;;;;;;14.13;8.87;;;3.90;84.70;;;4.34;63.62;98368.50;4949345;28;20395;-51
2021/11/10 02:00:33;;;;;;;14.00;8.23;;;3.90;85.10;;;4.33;64.19;98357.13;4950514;28;20051;-51
2021/11/10 02:03:08;;;;;;;12.37;7.93;;;3.90;85.00;;;4.36;64.14;98349.94;4963272;28;20289;-47
2021/11/10 02:05:56;;;;;;;12.97;8.30;;;3.90;85.00;;;4.33;64.04;98343.09;4949416;28;20138;-50
2021/11/10 02:08:43;;;;;;;12.43;8.50;;;3.90;85.20;;;4.31;64.41;98335.31;4951267;28;20053;-48
2021/11/10 02:11:28;;;;;;;17.33;9.33;;;3.90;85.60;;;4.34;64.21;98326.31;4934546;29;20207;-51
2021/11/10 02:14:02;;;;;;;;;;;4.00;85.70;;;4.30;63.43;98312.53;4948826;28;20055;-49
2021/11/10 02:16:31;;;;;;;15.67;9.40;;;3.90;85.60;;;4.34;63.68;98306.09;4947881;28;20120;-49
2021/11/10 02:19:05;;;;;;;14.37;8.83;;;3.90;85.60;;;4.39;64.32;98307.56;4964689;28;20416;-51
2021/11/10 02:21:42;;;;;;;14.85;8.65;;;4.00;85.30;;;4.42;64.15;98309.97;4948409;28;20050;-48
2021/11/10 02:24:10;;;;;;;13.77;9.03;;;4.00;84.70;;;4.43;63.58;98312.50;4964775;28;20051;-49
2021/11/10 02:26:41;;;;;;;14.10;8.73;;;4.10;85.50;;;4.48;63.76;98322.75;4948930;28;20492;-49
2021/11/10 02:29:18;;;;;;;12.90;8.83;;;4.10;84.50;;;4.49;63.81;98312.09;4949158;29;20055;-48
2021/11/10 02:31:47;;;;;;;16.80;9.30;;;4.20;84.10;;;4.48;63.59;98302.50;4950922;29;20051;-47
2021/11/10 02:34:16;;;;;;;16.37;8.50;;;4.10;83.90;;;4.49;63.31;98303.34;4963822;28;20253;-47
2021/11/10 02:36:44;;;;;;;11.73;7.90;;;4.10;83.90;;;4.49;63.03;98300.69;4948006;28;20063;-49
2021/11/10 02:39:17;;;;;;;13.63;9.30;;;4.20;83.80;;;4.49;63.57;98292.78;4949492;29;20400;-48
2021/11/10 02:41:49;;;;;;;12.60;8.33;;;4.20;83.50;;;4.43;63.48;98304.59;4949417;29;20059;-47
2021/11/10 02:44:20;;;;;;;13.73;8.93;;;4.10;83.30;;;4.40;62.84;98309.25;4947904;29;20257;-48
2021/11/10 02:46:52;;;;;;;15.93;8.77;;;4.00;83.60;;;4.38;63.19;98305.88;4948614;28;20055;-48
2021/11/10 02:49:21;;;;;;;14.03;9.03;;;4.00;84.00;;;4.38;63.21;98308.50;4947768;29;20047;-49
2021/11/10 02:52:12;;;;;;;13.77;8.73;;;4.00;84.10;;;4.36;63.53;98308.59;4950000;28;20059;-47
2021/11/10 02:54:45;;;;;;;18.00;9.27;;;4.00;83.90;;;4.36;64.00;98315.69;4948154;29;20047;-48
2021/11/10 02:57:13;;;;;;;13.57;8.43;;;4.00;84.10;;;4.36;63.33;98315.69;4964213;28;20063;-49
2021/11/10 02:59:41;;;;;;;15.47;9.07;;;4.00;84.40;;;4.39;63.39;98315.47;4964262;28;20063;-48
2021/11/10 03:02:10;;;;;;;14.83;9.20;;;4.00;84.20;;;4.36;63.36;98323.59;4947543;29;20063;-49
2021/11/10 03:04:47;;;;;;;14.67;9.07;;;4.00;84.20;;;4.36;63.54;98316.50;4963908;28;20067;-48
2021/11/10 03:07:15;;;;;;;12.80;8.27;;;4.00;84.50;;;4.38;63.48;98316.41;4947900;28;20078;-49
2021/11/10 03:09:46;;;;;;;16.87;8.97;;;4.00;84.10;;;4.37;63.06;98301.56;4961824;28;20055;-48
2021/11/10 03:12:21;;;;;;;14.00;8.13;;;4.00;83.80;;;4.35;63.69;98304.31;4964448;28;20633;-49
2021/11/10 03:14:50;;;;;;;14.73;9.13;;;4.00;83.50;;;4.34;63.84;98299.97;4931797;29;20051;-52
2021/11/10 03:17:20;;;;;;;14.43;8.13;;;3.90;83.40;;;4.33;63.67;98303.56;4962564;28;20267;-49
2021/11/10 03:19:51;;;;;;;16.33;9.43;;;4.00;83.80;;;4.34;63.16;98300.81;4963794;28;20069;-50
2021/11/10 03:22:21;;;;;;;14.60;8.70;;;3.90;83.60;;;4.32;63.10;98300.09;4948405;28;20062;-49
2021/11/10 03:24:51;;;;;;;14.37;8.87;;;3.90;83.50;;;4.30;63.46;98296.72;4949790;28;20063;-52
2021/11/10 03:27:23;;;;;;;16.17;8.57;;;3.90;83.50;;;4.28;63.42;98303.88;4962416;28;20055;-49
2021/11/10 03:29:55;;;;;;;12.77;8.73;;;3.90;83.70;;;4.29;63.56;98300.28;4979167;28;20066;-49
2021/11/10 03:32:26;;;;;;;15.37;9.87;;;3.90;83.50;;;4.25;63.26;98290.91;4962727;28;20055;-49
2021/11/10 03:34:57;;;;;;;15.50;10.37;;;3.90;83.90;;;4.26;63.49;98295.22;4947804;28;20070;-48
2021/11/10 03:37:35;;;;;;;15.63;9.20;;;3.90;84.10;;;4.26;63.62;98294.38;4962939;28;20047;-51
2021/11/10 03:40:09;;;;;;;18.30;10.10;;;3.90;84.00;;;4.23;63.65;98291.97;4963805;28;20098;-51
2021/11/10 03:42:40;;;;;;;16.40;9.90;;;3.90;84.10;;;4.20;63.16;98292.19;4946400;28;20051;-52
2021/11/10 03:45:11;;;;;;;18.87;9.73;;;3.80;84.00;;;4.18;63.91;98294.91;4963255;28;20063;-48
2021/11/10 03:47:40;;;;;;;14.67;8.33;;;3.80;84.50;;;4.17;63.45;98308.19;4947645;28;20055;-49
2021/11/10 03:50:10;;;;;;;18.87;9.13;;;3.80;84.60;;;4.18;63.86;98307.25;4961862;28;20058;-48
2021/11/10 03:52:38;;;;;;;18.50;9.73;;;3.80;84.70;;;4.16;63.98;98301.25;4963144;28;20051;-51
2021/11/10 03:55:08;;;;;;;14.70;8.60;;;3.80;84.70;;;4.16;63.67;98294.16;4945496;28;20051;-51
2021/11/10 03:57:41;;;;;;;14.82;10.20;;;3.80;84.60;;;4.16;63.90;98302.06;4962713;28;20051;-49
2021/11/10 04:00:10;;;;;;;15.63;9.43;;;3.80;84.40;;;4.12;63.90;98304.06;4978631;28;20071;-48
2021/11/10 04:02:48;;;;;;;14.43;8.43;;;3.70;84.30;;;4.07;63.51;98305.34;4964613;28;20055;-48
2021/11/10 04:05:25;;;;;;;14.43;7.93;;;3.60;84.80;;;4.05;64.10;98309.88;4963424;28;20073;-48
2021/11/10 04:07:55;;;;;;;13.93;7.83;;;3.60;85.40;;;4.06;63.81;98316.84;4961917;28;20588;-51
2021/11/10 04:10:24;;;;;;;15.90;8.63;;;3.60;85.20;;;4.02;64.15;98313.56;4961341;28;20057;-49
2021/11/10 04:12:53;;;;;;;14.57;8.33;;;3.60;85.20;;;3.98;64.20;98327.91;4962049;28;20354;-50
2021/11/10 04:15:22;;;;;;;15.17;7.97;;;3.50;85.40;;;3.93;64.28;98328.19;4978701;28;20082;-49
2021/11/10 04:17:50;;;;;;;14.47;8.10;;;3.50;86.00;;;3.93;64.47;98328.19;4947817;29;20043;-51
2021/11/10 04:20:19;;;;;;;12.20;9.23;;;3.50;86.10;;;3.96;64.32;98329.78;4947090;28;20147;-50
2021/11/10 04:22:47;;;;;;;15.50;10.00;;;3.60;86.00;;;4.01;64.34;98330.31;4963510;28;20062;-50
2021/11/10 04:25:15;;;;;;;16.93;9.73;;;3.60;85.60;;;4.01;64.13;98313.66;4947189;28;20063;-49
2021/11/10 04:27:43;;;;;;;14.70;9.40;;;3.60;85.20;;;4.01;63.91;98305.75;4945094;28;20277;-49
2021/11/10 04:30:11;;;;;;;15.73;9.50;;;3.60;85.30;;;4.01;64.05;98305.75;4978292;28;20057;-48
2021/11/10 04:32:41;;;;;;;19.27;9.67;;;3.60;84.90;;;3.98;64.11;98303.34;4963682;28;20051;-47
2021/11/10 04:35:11;;;;;;;18.83;10.37;;;3.60;84.80;;;3.96;63.70;98305.25;4946208;28;20366;-50
2021/11/10 04:37:40;;;;;;;16.00;9.43;;;3.50;84.80;;;3.96;64.27;98299.97;4946259;28;20047;-49
2021/11/10 04:40:11;;;;;;;14.57;8.57;;;3.50;84.90;;;3.95;64.20;98312.28;4960443;28;20440;-48
2021/11/10 04:42:40;;;;;;;13.37;9.40;;;3.50;84.60;;;3.89;63.96;98324.06;4962756;28;20207;-47
2021/11/10 04:45:19;;;;;;;12.43;8.03;;;3.40;84.40;;;3.85;63.74;98332.28;4960607;28;20069;-48
2021/11/10 04:47:47;;;;;;;13.17;7.93;;;3.30;85.00;;;3.82;63.82;98332.47;4961751;28;20104;-49
2021/11/10 04:50:15;;;;;;;12.50;8.60;;;3.30;85.10;;;3.74;63.71;98328.59;4952581;28;20055;-49
2021/11/10 04:52:45;;;;;;;14.50;9.40;;;3.30;84.80;;;3.69;63.85;98332.47;4954734;28;20055;-48
2021/11/10 04:55:14;;;;;;;14.43;8.47;;;3.20;85.50;;;3.66;63.50;98333.50;4966935;28;20051;-48
2021/11/10 04:57:43;;;;;;;18.63;9.43;;;3.20;85.10;;;3.65;64.56;98333.63;4953699;28;20059;-48
2021/11/10 05:00:13;;;;;;;12.70;8.50;;;3.20;86.00;;;3.71;64.09;98331.41;4968502;28;20073;-47
2021/11/10 05:02:47;;;;;;;15.87;9.47;;;3.30;86.10;;;3.75;64.27;98327.63;4968396;28;20065;-48
2021/11/10 05:05:20;;;;;;;15.77;8.67;;;3.40;85.50;;;3.78;64.16;98321.34;4984855;28;20065;-48
2021/11/10 05:07:49;;;;;;;18.50;10.97;;;3.40;85.20;;;3.78;64.29;98320.47;4952767;28;20058;-47
2021/11/10 05:10:18;;;;;;;18.43;10.20;;;3.40;85.10;;;3.77;64.45;98319.63;4968889;28;20063;-48
2021/11/10 05:12:51;;;;;;;16.20;9.00;;;3.40;85.20;;;3.77;63.85;98316.16;4969564;28;20051;-48
2021/11/10 05:15:19;;;;;;;14.17;8.67;;;3.40;85.00;;;3.74;63.87;98297.00;4953406;28;20286;-47
2021/11/10 05:17:50;;;;;;;15.77;8.60;;;3.40;84.80;;;3.70;64.33;98292.88;4967824;28;20387;-47
2021/11/10 05:20:22;;;;;;;15.30;8.43;;;3.30;84.70;;;3.66;63.73;98299.25;4967034;28;20061;-48
2021/11/10 05:22:50;;;;;;;13.33;8.30;;;3.20;84.80;;;3.64;63.78;98290.63;4952804;28;20061;-48
2021/11/10 05:25:19;;;;;;;15.57;8.57;;;3.20;85.20;;;3.66;64.20;98293.16;4950961;29;20047;-48
2021/11/10 05:27:47;;;;;;;13.60;7.90;;;3.20;85.30;;;3.65;64.24;98309.91;4953657;29;20073;-49
2021/11/10 05:30:16;;;;;;;13.67;8.97;;;3.20;85.10;;;3.61;64.36;98313.72;4952904;29;20051;-47
2021/11/10 05:32:44;;;;;;;16.23;9.93;;;3.20;85.70;;;3.59;64.20;98303.28;4954885;29;20047;-47
2021/11/10 05:35:12;;;;;;;19.13;11.90;;;3.20;85.70;;;3.60;64.01;98301.47;4953085;28;20047;-51
2021/11/10 05:37:40;;;;;;;18.90;11.80;;;3.20;85.90;;;3.59;63.85;98300.63;4952736;28;20062;-48
2021/11/10 05:40:09;;;;;;;17.17;11.50;;;3.20;86.00;;;3.59;64.10;98299.78;4954624;29;20542;-51
2021/11/10 05:42:37;;;;;;;16.83;8.97;;;3.20;85.70;;;3.55;64.51;98312.31;4952960;29;20269;-48
2021/11/10 05:45:06;;;;;;;14.20;9.03;;;3.10;85.80;;;3.49;64.28;98302.16;4951683;28;20055;-48
2021/11/10 05:47:35;;;;;;;15.87;9.00;;;3.00;86.40;;;3.46;64.34;98302.38;4953895;28;20057;-50
2021/11/10 05:50:09;;;;;;;14.77;9.40;;;3.00;87.10;;;3.44;64.26;98310.38;4952668;28;20050;-47
2021/11/10 05:52:37;;;;;;;14.50;9.52;;;3.00;87.10;;;3.43;64.85;98313.09;4953216;29;20221;-48
2021/11/10 05:55:06;;;;;;;15.57;8.17;;;3.00;87.20;;;3.45;64.44;98317.34;4952664;29;20047;-48
2021/11/10 05:57:37;;;;;;;16.40;9.70;;;3.00;87.50;;;3.44;65.20;98315.63;4952254;29;20061;-48
2021/11/10 06:00:11;;;;;;;17.63;8.67;;;3.00;87.30;;;3.45;64.76;98317.34;4951436;28;20380;-49
2021/11/10 06:02:43;;;;;;;13.83;8.73;;;3.10;87.70;;;3.46;64.94;98313.75;4949290;29;20043;-50
2021/11/10 06:05:15;;;;;;;16.40;8.97;;;3.10;87.60;;;3.47;65.01;98311.94;4949911;29;20051;-49
2021/11/10 06:07:45;;;;;;;15.03;8.90;;;3.00;87.40;;;3.46;64.84;98316.38;4950200;28;20365;-53
2021/11/10 06:10:16;;;;;;;15.03;8.47;;;3.10;87.80;;;3.47;64.75;98312.81;4948776;29;20055;-52
2021/11/10 06:12:46;;;;;;;16.07;8.77;;;3.10;87.40;;;3.48;64.80;98306.59;4948545;29;20341;-49
2021/11/10 06:15:14;;;;;;;17.23;9.33;;;3.10;87.50;;;3.51;64.88;98313.47;4949457;28;20059;-51
2021/11/10 06:17:43;;;;;;;15.00;9.63;;;3.10;87.30;;;3.54;64.83;98313.25;4949498;29;20065;-47
2021/11/10 06:20:12;;;;;;;14.27;8.13;;;3.20;87.10;;;3.55;64.79;98313.16;4949248;28;20085;-49
2021/11/10 06:22:41;;;;;;;13.83;8.27;;;3.20;86.80;;;3.58;64.38;98319.16;4950090;29;20051;-49
2021/11/10 06:25:10;;;;;;;17.67;8.63;;;3.20;86.70;;;3.59;64.70;98307.66;4948559;29;20065;-47
2021/11/10 06:27:39;;;;;;;17.83;9.20;;;3.20;86.60;;;3.55;64.60;98309.69;4948654;29;20241;-48
2021/11/10 06:30:08;;;;;;;12.73;8.60;;;3.10;86.60;;;3.54;64.65;98316.72;4947552;29;20055;-47
2021/11/10 06:32:37;;;;;;;16.20;8.87;;;3.10;86.80;;;3.52;64.47;98317.78;4948789;29;20085;-47
2021/11/10 06:35:06;;;;;;;16.70;8.70;;;3.00;86.80;;;3.49;64.80;98320.59;4948589;29;20053;-47
2021/11/10 06:37:35;;;;;;;13.03;8.90;;;3.10;86.90;;;3.46;64.36;98321.66;4948255;29;20047;-47
2021/11/10 06:40:05;;;;;;;17.20;9.37;;;3.00;86.80;;;3.45;65.02;98324.38;4947340;29;20040;-51
2021/11/10 06:42:33;;;;;;;17.80;9.00;;;3.00;86.90;;;3.47;64.71;98333.88;4949504;29;20059;-48
2021/11/10 06:45:03;;;;;;;68.13;33.67;;;3.00;86.70;;;3.50;64.77;98323.13;4948910;28;20065;-52
2021/11/10 06:47:32;;;;;;;47.40;25.40;;;3.10;86.90;;;3.50;64.33;98319.66;4948152;29;20242;-48
2021/11/10 06:50:02;;;;;;;24.07;14.97;;;3.10;86.80;;;3.48;64.99;98322.38;4946611;29;20055;-48
2021/11/10 06:52:30;;;;;;;25.93;13.03;;;3.10;86.50;;;3.46;64.29;98323.44;4949674;28;20043;-49
2021/11/10 06:54:58;;;;;;;21.87;12.47;;;3.10;86.40;;;3.44;64.30;98325.34;4949581;28;20616;-48
2021/11/10 06:57:27;;;;;;;20.03;12.10;;;3.10;86.50;;;3.43;64.33;98328.91;4947739;29;20194;-48
2021/11/10 06:59:54;;;;;;;16.43;9.90;;;3.00;86.50;;;3.40;64.62;98323.84;4949917;29;20055;-48
2021/11/10 07:02:22;;;;;;;14.07;8.53;;;3.00;86.80;;;3.35;65.15;98319.72;4948371;29;20307;-50
2021/11/10 07:04:50;;;;;;;16.67;9.00;;;2.90;87.20;;;3.38;64.59;98315.22;4950258;28;20493;-50
2021/11/10 07:07:19;;;;;;;18.60;10.17;;;2.90;87.50;;;3.41;64.86;98323.72;4950164;28;20566;-53
2021/11/10 07:09:47;;;;;;;20.93;11.70;;;3.00;87.50;;;3.47;64.64;98317.22;4949700;28;20306;-47
2021/11/10 07:12:14;;;;;;;17.63;11.83;;;3.10;87.20;;;3.48;64.91;98322.38;4947461;28;20077;-52
2021/11/10 07:14:42;;;;;;;18.77;11.83;;;3.20;86.90;;;3.53;64.94;98322.09;4948178;28;20074;-49
2021/11/10 07:17:11;;;;;;;14.53;9.57;;;3.20;86.80;;;3.57;64.99;98331.50;4948915;29;20281;-49
2021/11/10 07:19:39;;;;;;;19.27;9.10;;;3.30;86.90;;;3.59;65.04;98334.88;4948103;29;20051;-47
2021/11/10 07:22:07;;;;;;;16.37;9.17;;;3.30;86.70;;;3.63;64.99;98332.88;4958458;28;20051;-47
2021/11/10 07:24:35;;;;;;;17.50;10.60;;;3.30;86.30;;;3.65;65.08;98338.88;4967369;28;20065;-47
2021/11/10 07:27:03;;;;;;;15.43;10.77;;;3.40;86.00;;;3.65;64.74;98344.16;4966410;28;20062;-49
2021/11/10 07:29:31;;;;;;;19.07;11.03;;;3.30;85.70;;;3.64;64.87;98347.72;4966748;28;20249;-47
2021/11/10 07:31:59;;;;;;;19.27;10.53;;;3.20;85.80;;;3.65;64.71;98349.41;4967667;28;20057;-47
2021/11/10 07:34:27;;;;;;;26.53;16.57;;;3.30;86.00;;;3.67;64.44;98353.63;4966914;28;20046;-47
2021/11/10 07:36:55;;;;;;;36.23;22.77;;;3.40;85.70;;;3.69;64.68;98358.81;4966301;28;20110;-48
2021/11/10 07:39:23;;;;;;;57.37;30.00;;;3.40;85.70;;;3.68;64.57;98365.88;4966511;28;20363;-46
2021/11/10 07:41:52;;;;;;;38.33;23.67;;;3.40;85.10;;;3.57;64.42;98356.94;4967243;28;20293;-47
2021/11/10 07:44:23;;;;;;;24.07;14.27;;;3.10;85.80;;;3.52;64.76;98350.19;4980581;28;20051;-46
2021/11/10 07:47:05;;;;;;;26.27;15.00;;;3.10;86.90;;;3.58;65.18;98348.97;4969124;28;20066;-46
2021/11/10 07:49:34;;;;;;;22.37;14.30;;;3.20;87.30;;;3.65;65.17;98350.25;4965894;28;20062;-46
2021/11/10 07:52:03;;;;;;;23.03;13.87;;;3.30;87.20;;;3.68;64.79;98350.06;4964815;28;20066;-48
2021/11/10 07:54:31;;;;;;;17.07;10.30;;;3.40;86.70;;;3.72;64.78;98355.94;4965875;28;20054;-46
2021/11/10 07:56:59;;;;;;;17.27;11.23;;;3.40;86.70;;;3.75;65.39;98356.59;4966802;28;20059;-46
2021/11/10 07:59:26;;;;;;;19.37;12.47;;;3.50;86.80;;;3.79;65.24;98359.88;4967155;28;20434;-46
2021/11/10 08:01:54;;;;;;;24.90;14.87;;;3.50;86.30;;;3.78;65.25;98363.47;4967848;28;20459;-47
2021/11/10 08:04:23;;;;;;;16.37;11.27;;;3.50;86.60;;;3.82;65.55;98372.00;4966440;28;20063;-49
2021/11/10 08:06:50;;;;;;;19.10;11.70;;;3.50;86.80;;;3.86;64.92;98362.97;4967126;28;20047;-47
2021/11/10 08:09:18;;;;;;;25.13;13.13;;;3.60;87.00;;;3.88;65.30;98351.38;4998051;28;20492;-47
2021/11/10 08:11:46;;;;;;;19.83;11.03;;;3.60;86.90;;;3.94;65.42;98331.69;4966424;28;20062;-45
2021/11/10 08:14:14;;;;;;;16.53;10.07;;;3.70;87.30;;;3.96;65.27;98339.50;4965293;28;20047;-46
2021/11/10 08:16:42;;;;;;;18.70;11.20;;;3.70;87.20;;;4.01;65.25;98356.66;4964584;28;20046;-47
2021/11/10 08:19:10;;;;;;;16.60;10.83;;;3.70;87.20;;;4.04;65.58;98353.00;4966784;28;20341;-46
2021/11/10 08:21:39;;;;;;;16.60;10.10;;;3.80;87.30;;;4.07;65.80;98353.63;4965908;28;20061;-46
2021/11/10 08:24:07;;;;;;;17.30;10.37;;;3.80;87.20;;;4.11;65.88;98355.09;4964672;28;20055;-47
2021/11/10 08:26:34;;;;;;;18.87;10.43;;;3.90;87.20;;;4.17;65.56;98358.25;4966355;28;20054;-46
2021/11/10 08:29:03;;;;;;;17.90;11.07;;;3.90;87.10;;;4.19;65.54;98356.38;4965355;28;20050;-50
2021/11/10 08:31:31;;;;;;;18.13;10.40;;;3.90;86.60;;;4.22;65.31;98364.06;4970049;28;20043;-48
2021/11/10 08:33:59;;;;;;;22.63;15.40;;;4.00;86.90;;;4.26;64.96;98362.91;4978626;28;20059;-47
2021/11/10 08:36:27;;;;;;;19.83;13.30;;;4.10;87.80;;;4.30;65.47;98373.16;4978347;28;20236;-47
2021/11/10 08:38:56;;;;;;;15.67;10.27;;;4.10;86.80;;;4.33;64.85;98361.56;4979986;28;20050;-49
2021/11/10 08:41:24;;;;;;;25.40;15.60;;;4.10;86.90;;;4.37;65.67;98354.28;4979316;28;20345;-47
2021/11/10 08:43:52;;;;;;;29.93;15.77;;;4.10;86.80;;;4.41;65.32;98364.50;4979643;28;20222;-47
2021/11/10 08:46:22;;;;;;;30.63;15.93;;;4.20;86.90;;;4.46;66.06;98369.47;4978998;28;20395;-47
2021/11/10 08:48:50;;;;;;;20.67;13.10;;;4.20;86.80;;;4.53;65.69;98363.66;4979168;28;20348;-47
2021/11/10 08:51:20;;;;;;;18.27;10.60;;;4.30;86.90;;;4.58;65.59;98371.28;4974391;28;20157;-48
2021/11/10 08:53:49;;;;;;;16.37;9.30;;;4.40;86.50;;;4.62;65.25;98379.81;4964785;28;20038;-48
2021/11/10 08:56:17;;;;;;;16.57;9.27;;;4.40;87.20;;;4.66;64.99;98376.84;4966096;28;20261;-47
2021/11/10 08:58:45;;;;;;;16.23;8.73;;;4.50;86.60;;;4.72;65.58;98381.69;4966304;28;20058;-47
2021/11/10 09:01:16;;;;;;;15.53;9.07;;;4.60;86.50;;;4.78;65.22;98376.97;4962541;28;20263;-49
2021/11/10 09:03:45;;;;;;;15.20;8.63;;;4.60;86.20;;;4.82;65.77;98378.44;4963650;28;20353;-50
2021/11/10 09:06:13;;;;;;;15.07;9.90;;;4.60;86.30;;;4.88;65.59;98378.00;4963921;28;20395;-50
2021/11/10 09:08:41;;;;;;;13.93;8.60;;;4.80;86.30;;;4.96;65.24;98380.94;4962170;28;20053;-49
2021/11/10 09:11:09;;;;;;;13.53;9.17;;;4.80;86.30;;;5.04;65.17;98390.94;4959744;28;20046;-51
2021/11/10 09:13:37;;;;;;;16.90;9.03;;;4.90;86.20;;;5.09;65.83;98380.91;4964151;28;20047;-48
2021/11/10 09:16:05;;;;;;;13.60;9.87;;;5.00;86.20;;;5.16;65.93;98384.81;4964174;28;20289;-49
2021/11/10 09:18:33;;;;;;;16.37;9.87;;;5.10;86.30;;;5.20;65.19;98385.44;4961256;28;20057;-48
2021/11/10 09:21:01;;;;;;;19.07;12.43;;;5.10;86.50;;;5.22;65.80;98386.19;4965366;28;20057;-49
2021/11/10 09:23:29;;;;;;;16.60;10.73;;;5.10;86.60;;;5.20;65.51;98380.16;4965144;28;20056;-48
2021/11/10 09:25:57;;;;;;;20.07;9.97;;;5.00;86.70;;;5.22;65.38;98378.25;4966747;28;20059;-51
2021/11/10 09:28:26;;;;;;;18.13;11.53;;;5.00;88.00;;;5.26;65.64;98383.19;4966033;28;20062;-49
2021/11/10 09:30:54;;;;;;;17.47;11.00;;;5.10;87.30;;;5.33;66.12;98370.38;4964312;28;20245;-49
2021/11/10 09:33:24;;;;;;;16.63;11.20;;;5.20;87.40;;;5.41;66.30;98372.47;4965476;28;20643;-49
2021/11/10 09:35:54;;;;;;;16.23;11.57;;;5.30;87.30;;;5.47;65.29;98379.97;4966584;28;20053;-50
2021/11/10 09:38:23;;;;;;;17.93;11.00;;;5.40;87.10;;;5.51;65.52;98377.00;4969039;28;20046;-48
2021/11/10 09:40:53;;;;;;;18.53;10.57;;;5.40;87.00;;;5.53;65.64;98372.44;4967519;28;20055;-48
2021/11/10 09:43:21;;;;;;;16.37;10.13;;;5.50;87.00;;;5.58;65.59;98377.38;4969260;28;20061;-51
2021/11/10 09:45:50;;;;;;;20.40;11.70;;;5.50;86.90;;;5.64;65.53;98374.31;4969275;28;20053;-54
2021/11/10 09:48:19;;;;;;;17.17;9.67;;;5.60;86.70;;;5.69;65.65;98374.81;4969269;28;20300;-50
2021/11/10 09:50:49;;;;;;;19.57;10.77;;;5.60;86.50;;;5.73;66.15;98370.97;4970054;28;20053;-48
2021/11/10 09:53:19;;;;;;;18.63;11.83;;;5.60;86.20;;;5.79;65.75;98369.69;4967662;28;20051;-51
2021/11/10 09:55:47;;;;;;;17.77;9.93;;;5.70;86.10;;;5.83;65.18;98372.94;4968096;28;20061;-48
2021/11/10 09:58:16;;;;;;;19.47;12.30;;;5.70;86.10;;;5.89;65.97;98364.56;4970129;28;20293;-52
2021/11/10 10:00:51;;;;;;;23.87;13.43;;;5.80;85.90;;;5.94;65.97;98369.53;4968097;28;20047;-49
2021/11/10 10:03:20;;;;;;;21.63;13.13;;;5.90;86.00;;;6.01;65.83;98366.34;4968396;28;20058;-48
2021/11/10 10:05:51;;;;;;;15.77;11.10;;;6.00;86.00;;;6.08;65.46;98370.19;4967458;28;20575;-52
2021/11/10 10:08:22;;;;;;;17.27;10.07;;;6.10;86.00;;;6.16;66.25;98358.19;4968222;28;20065;-53
2021/11/10 10:10:51;;;;;;;24.23;12.77;;;6.10;86.00;;;6.20;65.83;98362.28;4967780;28;20361;-52
2021/11/10 10:13:20;;;;;;;18.17;11.70;;;6.10;85.80;;;6.25;65.90;98365.44;4967830;28;20272;-48
2021/11/10 10:15:49;;;;;;;19.97;10.13;;;6.20;85.80;;;6.26;65.95;98364.47;4967156;28;20065;-48
2021/11/10 10:18:25;;;;;;;17.93;10.57;;;6.20;85.70;;;6.30;65.16;98368.56;4967472;28;20058;-48
2021/11/10 10:20:57;;;;;;;18.90;10.80;;;6.20;85.80;;;6.29;65.74;98364.25;4968160;28;20368;-50
2021/11/10 10:23:31;;;;;;;20.47;10.80;;;6.20;86.30;;;6.31;65.91;98372.91;4968781;28;20058;-48
2021/11/10 10:26:06;;;;;;;;;;;6.20;86.60;;;6.27;65.50;98367.00;4966616;28;20063;-48
2021/11/10 10:28:45;;;;;;;18.73;10.83;;;6.20;86.80;;;6.34;65.79;98359.47;4969712;28;20068;-49
2021/11/10 10:31:27;;;;;;;15.13;10.90;;;6.20;86.90;;;6.36;65.94;98357.53;4968236;28;20062;-50
2021/11/10 10:34:04;;;;;;;20.07;11.40;;;6.30;86.90;;;6.41;65.38;98357.19;4968122;28;20285;-51
2021/11/10 10:36:37;;;;;;;19.00;11.43;;;6.30;87.10;;;6.44;65.64;98354.31;4967848;28;20060;-52
2021/11/10 10:39:18;;;;;;;21.30;11.93;;;6.40;87.00;;;6.50;66.33;98351.19;4967999;28;20051;-49